TimeHST,TemperatureF,Dew PointF,Humidity,Sea Level PressureIn,VisibilityMPH,Wind Direction,Wind SpeedMPH,Gust SpeedMPH,PrecipitationIn,Events,Conditions,WindDirDegrees,DateUTC
12:54 AM,71.1,66.0,84,30.09,10.0,Calm,Calm,-,N/A,,Clear,0,2013-05-28 10:54:00
1:54 AM,69.1,66.0,90,30.07,10.0,SSE,3.5,-,N/A,,Clear,160,2013-05-28 11:54:00
2:54 AM,68.0,64.9,90,30.06,10.0,Calm,Calm,-,N/A,,Clear,0,2013-05-28 12:54:00
3:54 AM,66.0,64.9,96,30.05,10.0,SSE,4.6,-,N/A,,Clear,150,2013-05-28 13:54:00
4:54 AM,66.9,64.9,93,30.07,10.0,SSE,4.6,-,N/A,,Partly Cloudy,150,2013-05-28 14:54:00
5:54 AM,66.9,64.0,90,30.07,10.0,East,4.6,-,N/A,,Clear,100,2013-05-28 15:54:00
6:54 AM,69.1,64.9,87,30.09,10.0,Calm,Calm,-,N/A,,Clear,0,2013-05-28 16:54:00
7:54 AM,75.9,66.0,71,30.09,10.0,NNE,3.5,-,N/A,,Partly Cloudy,20,2013-05-28 17:54:00
8:54 AM,81.0,66.9,62,30.09,10.0,Variable,3.5,-,N/A,,Scattered Clouds,0,2013-05-28 18:54:00
9:54 AM,82.9,70.0,65,30.08,10.0,ENE,9.2,-,N/A,,Scattered Clouds,70,2013-05-28 19:54:00
10:54 AM,84.9,70.0,61,30.09,10.0,ENE,16.1,21.9,N/A,,Scattered Clouds,60,2013-05-28 20:54:00
11:54 AM,84.9,70.0,61,30.08,10.0,ENE,17.3,24.2,N/A,,Scattered Clouds,60,2013-05-28 21:54:00
12:54 PM,86.0,70.0,59,30.07,10.0,NE,16.1,26.5,N/A,,Scattered Clouds,50,2013-05-28 22:54:00
1:54 PM,87.1,68.0,53,30.06,10.0,ENE,16.1,24.2,N/A,,Scattered Clouds,70,2013-05-28 23:54:00
2:54 PM,84.9,66.9,55,30.05,10.0,ENE,13.8,19.6,N/A,,Scattered Clouds,70,2013-05-29 00:54:00
3:54 PM,88.0,69.1,53,30.04,10.0,NNE,18.4,-,N/A,,Scattered Clouds,20,2013-05-29 01:54:00
4:54 PM,86.0,68.0,55,30.04,10.0,NE,10.4,-,N/A,,Scattered Clouds,40,2013-05-29 02:54:00
5:54 PM,82.9,70.0,65,30.05,10.0,NE,13.8,-,N/A,,Scattered Clouds,40,2013-05-29 03:54:00
6:54 PM,80.1,68.0,67,30.06,10.0,Variable,4.6,-,N/A,,Scattered Clouds,0,2013-05-29 04:54:00
7:54 PM,78.1,71.1,79,30.09,10.0,West,6.9,-,N/A,,Partly Cloudy,260,2013-05-29 05:54:00
8:54 PM,77.0,72.0,84,30.11,10.0,Calm,Calm,-,N/A,,Mostly Cloudy,0,2013-05-29 06:54:00
9:54 PM,77.0,71.1,82,30.12,10.0,Variable,3.5,-,N/A,,Clear,0,2013-05-29 07:54:00
10:54 PM,73.9,70.0,87,30.12,10.0,South,4.6,-,N/A,,Clear,170,2013-05-29 08:54:00
11:54 PM,73.0,70.0,90,30.11,10.0,SE,5.8,-,N/A,,Clear,130,2013-05-29 09:54:00